sensor_id;sensor_type;location;lat;lon;timestamp;pressure;altitude;pressure_sealevel;temperature;humidity
6343;BME280;3204;42.698;23.298;2023-08-20T00:00:08;95177.25;;;23.56;60.70
6343;BME280;3204;42.698;23.298;2023-08-20T00:02:35;95174.09;;;23.57;60.57
6343;BME280;3204;42.698;23.298;2023-08-20T00:05:02;95176.47;;;23.55;60.84
6343;BME280;3204;42.698;23.298;2023-08-20T00:07:30;95173.72;;;23.62;60.64
6343;BME280;3204;42.698;23.298;2023-08-20T00:09:56;95176.13;;;23.64;60.68
6343;BME280;3204;42.698;23.298;2023-08-20T00:12:21;95178.03;;;23.56;60.83
6343;BME280;3204;42.698;23.298;2023-08-20T00:15:00;95180.44;;;23.61;60.74
6343;BME280;3204;42.698;23.298;2023-08-20T00:19:58;95166.44;;;23.40;61.64
6343;BME280;3204;42.698;23.298;2023-08-20T00:22:25;95168.88;;;23.45;61.48
6343;BME280;3204;42.698;23.298;2023-08-20T00:24:52;95168.84;;;23.42;61.48
6343;BME280;3204;42.698;23.298;2023-08-20T00:27:18;95172.69;;;23.30;61.78
6343;BME280;3204;42.698;23.298;2023-08-20T00:29:44;95180.59;;;23.25;62.28
6343;BME280;3204;42.698;23.298;2023-08-20T00:32:09;95172.53;;;23.13;62.62
6343;BME280;3204;42.698;23.298;2023-08-20T00:34:34;95173.34;;;23.13;62.43
6343;BME280;3204;42.698;23.298;2023-08-20T00:37:01;95173.00;;;23.18;62.38
6343;BME280;3204;42.698;23.298;2023-08-20T00:39:26;95165.91;;;23.21;62.35
6343;BME280;3204;42.698;23.298;2023-08-20T00:41:52;95174.59;;;23.19;62.28
6343;BME280;3204;42.698;23.298;2023-08-20T00:44:17;95163.47;;;23.16;62.42
6343;BME280;3204;42.698;23.298;2023-08-20T00:46:43;95164.25;;;23.16;62.64
6343;BME280;3204;42.698;23.298;2023-08-20T00:49:08;95172.16;;;23.14;62.63
6343;BME280;3204;42.698;23.298;2023-08-20T00:51:34;95170.91;;;23.08;62.84
6343;BME280;3204;42.698;23.298;2023-08-20T00:54:02;95169.66;;;23.02;62.77
6343;BME280;3204;42.698;23.298;2023-08-20T00:56:28;95174.91;;;23.11;62.63
6343;BME280;3204;42.698;23.298;2023-08-20T00:58:54;95168.19;;;23.12;62.47
6343;BME280;3204;42.698;23.298;2023-08-20T01:01:21;95173.69;;;23.08;62.65
6343;BME280;3204;42.698;23.298;2023-08-20T01:03:46;95168.56;;;23.10;62.57
6343;BME280;3204;42.698;23.298;2023-08-20T01:06:46;95172.88;;;23.08;62.87
6343;BME280;3204;42.698;23.298;2023-08-20T01:09:29;95165.66;;;22.96;63.15
6343;BME280;3204;42.698;23.298;2023-08-20T01:12:00;95173.56;;;22.94;63.26
6343;BME280;3204;42.698;23.298;2023-08-20T01:14:27;95172.41;;;22.99;62.92
6343;BME280;3204;42.698;23.298;2023-08-20T01:16:54;95170.00;;;22.94;63.25
6343;BME280;3204;42.698;23.298;2023-08-20T01:19:21;95163.31;;;22.98;62.96
6343;BME280;3204;42.698;23.298;2023-08-20T01:30:24;95169.06;;;22.79;63.91
6343;BME280;3204;42.698;23.298;2023-08-20T01:32:52;95162.34;;;22.77;64.05
6343;BME280;3204;42.698;23.298;2023-08-20T01:35:17;95154.44;;;22.79;64.00
6343;BME280;3204;42.698;23.298;2023-08-20T01:37:43;95150.09;;;22.78;64.00
6343;BME280;3204;42.698;23.298;2023-08-20T01:40:09;95152.41;;;22.76;63.92
6343;BME280;3204;42.698;23.298;2023-08-20T01:42:39;95149.28;;;22.77;63.90
6343;BME280;3204;42.698;23.298;2023-08-20T01:45:06;95154.41;;;22.75;63.98
6343;BME280;3204;42.698;23.298;2023-08-20T01:47:32;95159.56;;;22.77;63.98
6343;BME280;3204;42.698;23.298;2023-08-20T01:49:58;95143.25;;;22.68;64.25
6343;BME280;3204;42.698;23.298;2023-08-20T01:52:24;95136.94;;;22.68;64.04
6343;BME280;3204;42.698;23.298;2023-08-20T01:54:50;95134.22;;;22.71;64.01
6343;BME280;3204;42.698;23.298;2023-08-20T01:57:15;95137.34;;;22.70;64.19
6343;BME280;3204;42.698;23.298;2023-08-20T01:59:41;95140.16;;;22.73;63.96
6343;BME280;3204;42.698;23.298;2023-08-20T02:02:07;95129.44;;;22.68;63.92
6343;BME280;3204;42.698;23.298;2023-08-20T02:04:33;95131.44;;;22.71;64.17
6343;BME280;3204;42.698;23.298;2023-08-20T02:06:58;95132.31;;;22.79;63.89
6343;BME280;3204;42.698;23.298;2023-08-20T02:09:25;95122.53;;;22.88;63.59
6343;BME280;3204;42.698;23.298;2023-08-20T02:11:51;95124.84;;;22.83;63.72
6343;BME280;3204;42.698;23.298;2023-08-20T02:14:16;95120.16;;;22.90;63.59
6343;BME280;3204;42.698;23.298;2023-08-20T02:16:42;95115.38;;;22.87;63.59
6343;BME280;3204;42.698;23.298;2023-08-20T02:19:08;95116.56;;;22.86;63.71
6343;BME280;3204;42.698;23.298;2023-08-20T02:21:33;95114.97;;;22.82;63.81
6343;BME280;3204;42.698;23.298;2023-08-20T02:23:59;95118.97;;;22.91;63.46
6343;BME280;3204;42.698;23.298;2023-08-20T02:26:24;95117.38;;;22.87;63.71
6343;BME280;3204;42.698;23.298;2023-08-20T02:28:50;95120.91;;;22.87;63.74
6343;BME280;3204;42.698;23.298;2023-08-20T02:31:16;95117.78;;;22.92;63.55
6343;BME280;3204;42.698;23.298;2023-08-20T02:33:41;95117.31;;;22.83;63.80
6343;BME280;3204;42.698;23.298;2023-08-20T02:36:07;95116.09;;;22.81;63.92
6343;BME280;3204;42.698;23.298;2023-08-20T02:38:33;95126.03;;;22.82;63.89
6343;BME280;3204;42.698;23.298;2023-08-20T02:40:58;95120.16;;;22.90;64.01
6343;BME280;3204;42.698;23.298;2023-08-20T02:43:24;95121.88;;;23.09;63.28
6343;BME280;3204;42.698;23.298;2023-08-20T02:45:49;95138.91;;;23.11;63.08
6343;BME280;3204;42.698;23.298;2023-08-20T02:48:15;95127.88;;;23.14;63.01
6343;BME280;3204;42.698;23.298;2023-08-20T02:50:40;95134.84;;;22.98;63.40
6343;BME280;3204;42.698;23.298;2023-08-20T02:53:06;95130.91;;;22.99;63.33
6343;BME280;3204;42.698;23.298;2023-08-20T02:55:32;95134.72;;;22.84;63.84
6343;BME280;3204;42.698;23.298;2023-08-20T02:57:58;95134.69;;;22.80;64.24
6343;BME280;3204;42.698;23.298;2023-08-20T03:00:26;95135.81;;;22.76;64.18
6343;BME280;3204;42.698;23.298;2023-08-20T03:02:51;95140.22;;;22.77;64.43
6343;BME280;3204;42.698;23.298;2023-08-20T03:05:17;95147.06;;;22.93;64.38
6343;BME280;3204;42.698;23.298;2023-08-20T03:07:42;95141.66;;;23.07;63.73
6343;BME280;3204;42.698;23.298;2023-08-20T03:10:08;95149.44;;;22.95;63.97
6343;BME280;3204;42.698;23.298;2023-08-20T03:12:34;95154.41;;;22.75;64.62
6343;BME280;3204;42.698;23.298;2023-08-20T03:15:00;95144.44;;;22.67;64.91
6343;BME280;3204;42.698;23.298;2023-08-20T03:17:26;95138.44;;;22.62;65.31
6343;BME280;3204;42.698;23.298;2023-08-20T03:19:59;95139.63;;;22.61;65.33
6343;BME280;3204;42.698;23.298;2023-08-20T03:22:25;95145.50;;;22.56;65.66
6343;BME280;3204;42.698;23.298;2023-08-20T03:24:51;95153.41;;;22.54;65.74
6343;BME280;3204;42.698;23.298;2023-08-20T03:27:18;95155.69;;;22.48;66.04
6343;BME280;3204;42.698;23.298;2023-08-20T03:29:44;95147.38;;;22.45;66.16
6343;BME280;3204;42.698;23.298;2023-08-20T03:32:10;95144.97;;;22.43;66.07
6343;BME280;3204;42.698;23.298;2023-08-20T03:34:36;95150.31;;;22.62;66.10
6343;BME280;3204;42.698;23.298;2023-08-20T03:37:02;95139.09;;;22.45;66.35
6343;BME280;3204;42.698;23.298;2023-08-20T03:39:28;95139.38;;;22.36;66.81
6343;BME280;3204;42.698;23.298;2023-08-20T03:41:53;95130.56;;;22.27;67.41
6343;BME280;3204;42.698;23.298;2023-08-20T03:44:19;95139.22;;;22.22;67.54
6343;BME280;3204;42.698;23.298;2023-08-20T03:46:45;95142.69;;;22.16;67.74
6343;BME280;3204;42.698;23.298;2023-08-20T03:49:10;95133.06;;;22.06;68.24
6343;BME280;3204;42.698;23.298;2023-08-20T03:51:36;95128.72;;;22.05;67.98
6343;BME280;3204;42.698;23.298;2023-08-20T03:54:02;95132.72;;;22.08;68.42
6343;BME280;3204;42.698;23.298;2023-08-20T03:56:28;95125.22;;;22.08;68.15
6343;BME280;3204;42.698;23.298;2023-08-20T03:58:54;95128.72;;;22.05;68.52
6343;BME280;3204;42.698;23.298;2023-08-20T04:01:19;95133.50;;;22.08;68.56
6343;BME280;3204;42.698;23.298;2023-08-20T04:03:48;95123.69;;;22.11;68.58
6343;BME280;3204;42.698;23.298;2023-08-20T04:06:13;95133.13;;;22.10;68.58
6343;BME280;3204;42.698;23.298;2023-08-20T04:08:39;95130.50;;;22.24;68.10
6343;BME280;3204;42.698;23.298;2023-08-20T04:11:04;95128.31;;;22.03;68.70
6343;BME280;3204;42.698;23.298;2023-08-20T04:13:30;95125.13;;;22.01;69.00
6343;BME280;3204;42.698;23.298;2023-08-20T04:15:56;95128.25;;;22.00;69.09
6343;BME280;3204;42.698;23.298;2023-08-20T04:18:22;95131.03;;;22.00;69.02
6343;BME280;3204;42.698;23.298;2023-08-20T04:20:52;95121.16;;;21.99;69.24
6343;BME280;3204;42.698;23.298;2023-08-20T04:23:18;95126.72;;;22.02;69.16
6343;BME280;3204;42.698;23.298;2023-08-20T04:25:44;95129.19;;;22.11;69.35
6343;BME280;3204;42.698;23.298;2023-08-20T04:28:11;95124.03;;;22.09;69.06
6343;BME280;3204;42.698;23.298;2023-08-20T04:30:36;95133.59;;;22.15;69.15
6343;BME280;3204;42.698;23.298;2023-08-20T04:33:02;95134.03;;;22.17;68.89
6343;BME280;3204;42.698;23.298;2023-08-20T04:35:28;95135.13;;;22.13;69.33
6343;BME280;3204;42.698;23.298;2023-08-20T04:37:53;95131.56;;;22.12;69.17
6343;BME280;3204;42.698;23.298;2023-08-20T04:40:19;95143.56;;;22.23;69.06
6343;BME280;3204;42.698;23.298;2023-08-20T04:42:44;95138.88;;;22.27;68.94
6343;BME280;3204;42.698;23.298;2023-08-20T04:45:10;95148.25;;;22.19;69.03
6343;BME280;3204;42.698;23.298;2023-08-20T04:47:36;95138.34;;;22.15;69.15
6343;BME280;3204;42.698;23.298;2023-08-20T04:50:02;95142.72;;;22.19;69.15
6343;BME280;3204;42.698;23.298;2023-08-20T04:52:27;95142.88;;;22.33;68.86
6343;BME280;3204;42.698;23.298;2023-08-20T04:54:53;95137.09;;;22.45;68.67
6343;BME280;3204;42.698;23.298;2023-08-20T04:57:19;95134.94;;;22.28;69.11
6343;BME280;3204;42.698;23.298;2023-08-20T04:59:44;95145.38;;;22.45;69.12
6343;BME280;3204;42.698;23.298;2023-08-20T05:02:13;95141.47;;;22.46;69.00
6343;BME280;3204;42.698;23.298;2023-08-20T05:04:40;95141.84;;;22.45;68.76
6343;BME280;3204;42.698;23.298;2023-08-20T05:07:05;95145.09;;;22.50;68.74
6343;BME280;3204;42.698;23.298;2023-08-20T05:09:31;95146.69;;;22.55;68.55
6343;BME280;3204;42.698;23.298;2023-08-20T05:11:56;95141.22;;;22.62;68.37
6343;BME280;3204;42.698;23.298;2023-08-20T05:14:26;95150.06;;;22.74;67.79
6343;BME280;3204;42.698;23.298;2023-08-20T05:16:51;95153.25;;;22.80;67.79
6343;BME280;3204;42.698;23.298;2023-08-20T05:19:17;95154.19;;;22.94;67.15
6343;BME280;3204;42.698;23.298;2023-08-20T05:21:42;95147.94;;;23.01;66.85
6343;BME280;3204;42.698;23.298;2023-08-20T05:24:08;95150.38;;;23.13;66.41
6343;BME280;3204;42.698;23.298;2023-08-20T05:26:34;95159.66;;;23.31;65.92
6343;BME280;3204;42.698;23.298;2023-08-20T05:29:00;95154.88;;;23.24;66.08
6343;BME280;3204;42.698;23.298;2023-08-20T05:31:25;95158.47;;;23.32;65.95
6343;BME280;3204;42.698;23.298;2023-08-20T05:33:51;95162.13;;;23.43;65.78
6343;BME280;3204;42.698;23.298;2023-08-20T05:36:16;95154.31;;;23.55;65.52
6343;BME280;3204;42.698;23.298;2023-08-20T05:38:41;95161.44;;;23.60;65.52
6343;BME280;3204;42.698;23.298;2023-08-20T05:41:10;95165.31;;;23.48;65.65
6343;BME280;3204;42.698;23.298;2023-08-20T05:43:35;95162.63;;;23.59;65.56
6343;BME280;3204;42.698;23.298;2023-08-20T05:46:06;95167.06;;;23.70;65.15
6343;BME280;3204;42.698;23.298;2023-08-20T05:48:32;95163.53;;;23.77;64.94
6343;BME280;3204;42.698;23.298;2023-08-20T05:50:58;95163.91;;;23.72;64.72
6343;BME280;3204;42.698;23.298;2023-08-20T05:53:23;95171.03;;;23.76;64.62
6343;BME280;3204;42.698;23.298;2023-08-20T05:55:49;95164.66;;;23.65;65.24
6343;BME280;3204;42.698;23.298;2023-08-20T05:58:14;95162.34;;;23.78;64.39
6343;BME280;3204;42.698;23.298;2023-08-20T06:00:40;95170.28;;;23.79;64.66
6343;BME280;3204;42.698;23.298;2023-08-20T06:03:06;95160.03;;;23.83;64.69
6343;BME280;3204;42.698;23.298;2023-08-20T06:05:34;95161.72;;;24.05;64.81
6343;BME280;3204;42.698;23.298;2023-08-20T06:08:00;95158.22;;;24.15;64.19
6343;BME280;3204;42.698;23.298;2023-08-20T06:10:25;95170.16;;;24.26;63.90
6343;BME280;3204;42.698;23.298;2023-08-20T06:12:51;95165.81;;;24.32;63.56
6343;BME280;3204;42.698;23.298;2023-08-20T06:15:17;95173.00;;;24.44;63.69
6343;BME280;3204;42.698;23.298;2023-08-20T06:17:43;95176.16;;;24.46;62.71
6343;BME280;3204;42.698;23.298;2023-08-20T06:20:09;95179.81;;;24.64;62.11
6343;BME280;3204;42.698;23.298;2023-08-20T06:22:36;95169.91;;;24.66;61.92
6343;BME280;3204;42.698;23.298;2023-08-20T06:25:02;95168.22;;;24.44;62.47
6343;BME280;3204;42.698;23.298;2023-08-20T06:27:28;95176.59;;;24.58;62.67
6343;BME280;3204;42.698;23.298;2023-08-20T06:29:53;95180.94;;;24.56;62.23
6343;BME280;3204;42.698;23.298;2023-08-20T06:32:19;95178.63;;;24.65;62.19
6343;BME280;3204;42.698;23.298;2023-08-20T06:34:45;95170.75;;;24.88;61.57
6343;BME280;3204;42.698;23.298;2023-08-20T06:37:10;95181.09;;;25.19;61.26
6343;BME280;3204;42.698;23.298;2023-08-20T06:39:35;95171.63;;;25.30;61.56
6343;BME280;3204;42.698;23.298;2023-08-20T06:42:01;95171.59;;;25.76;60.20
6343;BME280;3204;42.698;23.298;2023-08-20T06:44:27;95173.94;;;25.74;58.99
6343;BME280;3204;42.698;23.298;2023-08-20T06:46:52;95174.75;;;25.64;59.95
6343;BME280;3204;42.698;23.298;2023-08-20T06:49:17;95176.28;;;26.10;58.92
6343;BME280;3204;42.698;23.298;2023-08-20T06:51:43;95180.59;;;26.29;58.65
6343;BME280;3204;42.698;23.298;2023-08-20T06:54:08;95173.78;;;26.44;57.39
6343;BME280;3204;42.698;23.298;2023-08-20T06:56:35;95181.78;;;26.31;56.78
6343;BME280;3204;42.698;23.298;2023-08-20T06:59:00;95172.22;;;26.32;57.09
6343;BME280;3204;42.698;23.298;2023-08-20T07:01:27;95182.50;;;26.46;56.51
6343;BME280;3204;42.698;23.298;2023-08-20T07:03:52;95178.50;;;26.64;56.85
6343;BME280;3204;42.698;23.298;2023-08-20T07:06:17;95179.19;;;26.82;55.50
6343;BME280;3204;42.698;23.298;2023-08-20T07:08:44;95174.28;;;27.00;55.63
6343;BME280;3204;42.698;23.298;2023-08-20T07:11:09;95178.88;;;27.32;54.71
6343;BME280;3204;42.698;23.298;2023-08-20T07:13:35;95178.47;;;27.84;53.29
6343;BME280;3204;42.698;23.298;2023-08-20T07:16:01;95180.41;;;28.24;52.45
6343;BME280;3204;42.698;23.298;2023-08-20T07:18:27;95184.44;;;28.57;51.08
6343;BME280;3204;42.698;23.298;2023-08-20T07:20:54;95183.69;;;28.83;50.60
6343;BME280;3204;42.698;23.298;2023-08-20T07:23:23;95184.84;;;29.15;49.25
6343;BME280;3204;42.698;23.298;2023-08-20T07:25:48;95185.47;;;29.53;48.27
6343;BME280;3204;42.698;23.298;2023-08-20T07:28:26;95188.66;;;29.28;47.20
6343;BME280;3204;42.698;23.298;2023-08-20T07:31:15;95179.31;;;29.12;48.20
6343;BME280;3204;42.698;23.298;2023-08-20T07:33:40;95186.75;;;29.48;47.87
6343;BME280;3204;42.698;23.298;2023-08-20T07:36:06;95180.59;;;29.83;46.75
6343;BME280;3204;42.698;23.298;2023-08-20T07:38:32;95176.88;;;30.13;46.89
6343;BME280;3204;42.698;23.298;2023-08-20T07:40:57;95179.06;;;30.25;46.46
6343;BME280;3204;42.698;23.298;2023-08-20T07:43:24;95192.97;;;30.05;46.44
6343;BME280;3204;42.698;23.298;2023-08-20T07:45:49;95182.94;;;29.62;47.06
6343;BME280;3204;42.698;23.298;2023-08-20T07:48:15;95189.91;;;29.77;47.11
6343;BME280;3204;42.698;23.298;2023-08-20T07:50:40;95178.69;;;30.00;46.60
6343;BME280;3204;42.698;23.298;2023-08-20T07:53:05;95182.28;;;30.00;46.71
6343;BME280;3204;42.698;23.298;2023-08-20T07:55:31;95182.09;;;30.34;46.38
6343;BME280;3204;42.698;23.298;2023-08-20T07:57:56;95182.78;;;30.57;45.81
6343;BME280;3204;42.698;23.298;2023-08-20T08:00:23;95181.31;;;30.72;45.69
6343;BME280;3204;42.698;23.298;2023-08-20T08:02:48;95182.81;;;30.77;45.19
6343;BME280;3204;42.698;23.298;2023-08-20T08:05:14;95188.81;;;30.56;45.75
6343;BME280;3204;42.698;23.298;2023-08-20T08:07:39;95180.44;;;30.36;45.22
6343;BME280;3204;42.698;23.298;2023-08-20T08:10:05;95174.19;;;30.29;45.94
6343;BME280;3204;42.698;23.298;2023-08-20T08:12:31;95172.06;;;29.90;46.33
6343;BME280;3204;42.698;23.298;2023-08-20T08:14:56;95181.50;;;29.77;46.38
6343;BME280;3204;42.698;23.298;2023-08-20T08:17:22;95186.63;;;29.82;45.86
6343;BME280;3204;42.698;23.298;2023-08-20T08:19:47;95190.78;;;30.16;45.01
6343;BME280;3204;42.698;23.298;2023-08-20T08:22:13;95179.78;;;30.06;45.06
6343;BME280;3204;42.698;23.298;2023-08-20T08:24:38;95181.50;;;29.77;46.14
6343;BME280;3204;42.698;23.298;2023-08-20T08:27:07;95176.25;;;30.02;45.60
6343;BME280;3204;42.698;23.298;2023-08-20T08:29:33;95178.75;;;29.96;45.51
6343;BME280;3204;42.698;23.298;2023-08-20T08:31:59;95184.50;;;30.32;44.92
6343;BME280;3204;42.698;23.298;2023-08-20T08:34:24;95169.50;;;30.61;43.78
6343;BME280;3204;42.698;23.298;2023-08-20T08:36:50;95184.59;;;30.87;44.26
6343;BME280;3204;42.698;23.298;2023-08-20T08:39:15;95179.88;;;30.84;44.30
6343;BME280;3204;42.698;23.298;2023-08-20T08:41:41;95178.59;;;30.69;43.35
6343;BME280;3204;42.698;23.298;2023-08-20T08:44:08;95169.75;;;30.70;43.22
6343;BME280;3204;42.698;23.298;2023-08-20T08:46:35;95183.41;;;31.23;42.48
6343;BME280;3204;42.698;23.298;2023-08-20T08:49:01;95187.56;;;31.35;40.84
6343;BME280;3204;42.698;23.298;2023-08-20T08:51:28;95182.66;;;31.39;41.20
6343;BME280;3204;42.698;23.298;2023-08-20T08:53:53;95185.41;;;31.23;41.48
6343;BME280;3204;42.698;23.298;2023-08-20T08:56:20;95181.19;;;31.15;41.21
6343;BME280;3204;42.698;23.298;2023-08-20T08:58:55;95183.88;;;31.38;40.46
6343;BME280;3204;42.698;23.298;2023-08-20T09:01:23;95181.94;;;30.99;40.55
6343;BME280;3204;42.698;23.298;2023-08-20T09:03:49;95184.09;;;30.92;41.68
6343;BME280;3204;42.698;23.298;2023-08-20T09:06:14;95181.03;;;31.22;40.73
6343;BME280;3204;42.698;23.298;2023-08-20T09:08:40;95178.25;;;31.22;39.89
6343;BME280;3204;42.698;23.298;2023-08-20T09:11:10;95196.75;;;31.00;39.88
6343;BME280;3204;42.698;23.298;2023-08-20T09:13:40;95192.13;;;30.51;40.71
6343;BME280;3204;42.698;23.298;2023-08-20T09:16:08;95170.19;;;30.69;41.52
6343;BME280;3204;42.698;23.298;2023-08-20T09:18:54;95175.66;;;31.11;40.47
6343;BME280;3204;42.698;23.298;2023-08-20T09:21:26;95174.16;;;31.07;39.49
6343;BME280;3204;42.698;23.298;2023-08-20T09:23:53;95177.28;;;31.28;39.33
6343;BME280;3204;42.698;23.298;2023-08-20T09:26:19;95179.13;;;30.80;39.58
6343;BME280;3204;42.698;23.298;2023-08-20T09:28:45;95186.97;;;30.88;39.93
6343;BME280;3204;42.698;23.298;2023-08-20T09:31:12;95182.97;;;30.70;40.20
6343;BME280;3204;42.698;23.298;2023-08-20T09:33:58;95184.22;;;31.40;39.26
6343;BME280;3204;42.698;23.298;2023-08-20T09:36:43;95190.59;;;31.24;38.93
6343;BME280;3204;42.698;23.298;2023-08-20T09:39:09;95176.94;;;31.26;38.39
6343;BME280;3204;42.698;23.298;2023-08-20T09:41:35;95171.97;;;31.50;38.67
6343;BME280;3204;42.698;23.298;2023-08-20T09:44:02;95168.47;;;31.62;38.52
6343;BME280;3204;42.698;23.298;2023-08-20T09:46:31;95167.94;;;31.67;37.85
6343;BME280;3204;42.698;23.298;2023-08-20T09:48:57;95165.81;;;31.55;37.71
6343;BME280;3204;42.698;23.298;2023-08-20T09:51:27;95157.34;;;31.74;37.80
6343;BME280;3204;42.698;23.298;2023-08-20T09:54:21;95161.44;;;31.38;37.53
6343;BME280;3204;42.698;23.298;2023-08-20T09:56:54;95160.22;;;31.55;37.41
6343;BME280;3204;42.698;23.298;2023-08-20T09:59:20;95157.56;;;30.96;37.77
6343;BME280;3204;42.698;23.298;2023-08-20T10:01:47;95168.34;;;31.33;37.11
6343;BME280;3204;42.698;23.298;2023-08-20T10:04:14;95158.31;;;31.16;37.99
6343;BME280;3204;42.698;23.298;2023-08-20T10:06:41;95179.22;;;30.96;38.10
6343;BME280;3204;42.698;23.298;2023-08-20T10:09:08;95158.97;;;31.24;38.41
6343;BME280;3204;42.698;23.298;2023-08-20T10:11:34;95166.16;;;31.41;37.27
6343;BME280;3204;42.698;23.298;2023-08-20T10:13:59;95165.13;;;31.51;37.13
6343;BME280;3204;42.698;23.298;2023-08-20T10:16:27;95176.44;;;31.63;36.40
6343;BME280;3204;42.698;23.298;2023-08-20T10:18:53;95164.88;;;31.10;36.95
6343;BME280;3204;42.698;23.298;2023-08-20T10:21:26;95163.78;;;31.39;37.07
6343;BME280;3204;42.698;23.298;2023-08-20T10:23:54;95154.94;;;31.41;37.34
6343;BME280;3204;42.698;23.298;2023-08-20T10:26:20;95163.75;;;31.75;37.39
6343;BME280;3204;42.698;23.298;2023-08-20T10:28:48;95167.31;;;32.07;36.03
6343;BME280;3204;42.698;23.298;2023-08-20T10:31:17;95165.81;;;32.03;36.17
6343;BME280;3204;42.698;23.298;2023-08-20T10:33:55;95174.25;;;32.03;36.70
6343;BME280;3204;42.698;23.298;2023-08-20T10:36:22;95158.47;;;32.09;36.13
6343;BME280;3204;42.698;23.298;2023-08-20T10:38:51;95156.81;;;32.40;36.54
6343;BME280;3204;42.698;23.298;2023-08-20T10:41:32;95157.34;;;32.35;36.09
6343;BME280;3204;42.698;23.298;2023-08-20T10:44:00;95146.88;;;32.64;35.93
6343;BME280;3204;42.698;23.298;2023-08-20T10:46:28;95156.75;;;32.56;35.85
6343;BME280;3204;42.698;23.298;2023-08-20T10:49:01;95148.94;;;32.35;34.98
6343;BME280;3204;42.698;23.298;2023-08-20T10:51:37;95149.81;;;32.32;36.36
6343;BME280;3204;42.698;23.298;2023-08-20T10:54:07;95139.78;;;32.47;36.12
6343;BME280;3204;42.698;23.298;2023-08-20T10:56:55;95145.50;;;32.56;36.01
6343;BME280;3204;42.698;23.298;2023-08-20T10:59:26;95138.44;;;32.92;34.76
6343;BME280;3204;42.698;23.298;2023-08-20T11:01:57;95137.22;;;32.65;34.92
6343;BME280;3204;42.698;23.298;2023-08-20T11:04:30;95136.13;;;32.34;35.76
6343;BME280;3204;42.698;23.298;2023-08-20T11:06:59;95127.94;;;32.23;35.79
6343;BME280;3204;42.698;23.298;2023-08-20T11:09:29;95129.00;;;32.58;35.43
6343;BME280;3204;42.698;23.298;2023-08-20T11:11:57;95119.34;;;33.00;34.52
6343;BME280;3204;42.698;23.298;2023-08-20T11:14:23;95130.38;;;32.66;34.69
6343;BME280;3204;42.698;23.298;2023-08-20T11:16:49;95122.34;;;32.80;34.28
6343;BME280;3204;42.698;23.298;2023-08-20T11:19:19;95118.19;;;32.85;35.15
6343;BME280;3204;42.698;23.298;2023-08-20T11:21:45;95126.84;;;33.03;34.32
6343;BME280;3204;42.698;23.298;2023-08-20T11:24:12;95123.03;;;32.97;34.56
6343;BME280;3204;42.698;23.298;2023-08-20T11:26:41;95126.50;;;32.47;34.41
6343;BME280;3204;42.698;23.298;2023-08-20T11:29:14;95119.63;;;32.20;35.06
6343;BME280;3204;42.698;23.298;2023-08-20T11:31:49;95113.75;;;32.14;35.60
6343;BME280;3204;42.698;23.298;2023-08-20T11:34:15;95119.28;;;32.34;35.57
6343;BME280;3204;42.698;23.298;2023-08-20T11:36:41;95111.56;;;32.50;35.09
6343;BME280;3204;42.698;23.298;2023-08-20T11:39:09;95110.97;;;32.43;35.42
6343;BME280;3204;42.698;23.298;2023-08-20T11:41:36;95118.38;;;32.37;35.82
6343;BME280;3204;42.698;23.298;2023-08-20T11:44:02;95112.00;;;32.49;35.90
6343;BME280;3204;42.698;23.298;2023-08-20T11:46:30;95100.38;;;32.34;35.91
6343;BME280;3204;42.698;23.298;2023-08-20T11:49:06;95112.53;;;32.31;35.89
6343;BME280;3204;42.698;23.298;2023-08-20T11:51:36;95107.06;;;32.53;36.04
6343;BME280;3204;42.698;23.298;2023-08-20T11:54:11;95103.91;;;32.51;36.04
6343;BME280;3204;42.698;23.298;2023-08-20T11:56:44;95102.41;;;32.75;36.12
6343;BME280;3204;42.698;23.298;2023-08-20T11:59:11;95100.38;;;32.75;35.96
6343;BME280;3204;42.698;23.298;2023-08-20T12:01:38;95101.91;;;33.17;35.44
6343;BME280;3204;42.698;23.298;2023-08-20T12:04:07;95109.78;;;33.10;35.97
6343;BME280;3204;42.698;23.298;2023-08-20T12:06:35;95104.16;;;32.97;35.83
6343;BME280;3204;42.698;23.298;2023-08-20T12:09:01;95088.28;;;32.91;36.33
6343;BME280;3204;42.698;23.298;2023-08-20T12:11:27;95091.31;;;33.21;35.95
6343;BME280;3204;42.698;23.298;2023-08-20T12:13:53;95087.13;;;33.26;35.48
6343;BME280;3204;42.698;23.298;2023-08-20T12:18:54;95082.88;;;33.09;36.59
6343;BME280;3204;42.698;23.298;2023-08-20T12:21:20;95085.25;;;32.44;36.39
6343;BME280;3204;42.698;23.298;2023-08-20T12:23:46;95080.38;;;32.32;37.38
6343;BME280;3204;42.698;23.298;2023-08-20T12:26:11;95077.81;;;32.38;37.33
6343;BME280;3204;42.698;23.298;2023-08-20T12:28:37;95083.50;;;32.63;36.60
6343;BME280;3204;42.698;23.298;2023-08-20T12:31:02;95085.28;;;32.57;36.58
6343;BME280;3204;42.698;23.298;2023-08-20T12:33:28;95074.91;;;33.07;36.47
6343;BME280;3204;42.698;23.298;2023-08-20T12:35:54;95075.22;;;33.47;35.91
6343;BME280;3204;42.698;23.298;2023-08-20T12:38:20;95073.31;;;33.19;36.14
6343;BME280;3204;42.698;23.298;2023-08-20T12:40:46;95080.41;;;32.98;36.16
6343;BME280;3204;42.698;23.298;2023-08-20T12:43:13;95072.78;;;32.99;36.08
6343;BME280;3204;42.698;23.298;2023-08-20T12:45:38;95066.13;;;32.93;36.72
6343;BME280;3204;42.698;23.298;2023-08-20T12:48:05;95065.09;;;33.24;36.09
6343;BME280;3204;42.698;23.298;2023-08-20T12:50:31;95064.09;;;33.31;35.63
6343;BME280;3204;42.698;23.298;2023-08-20T12:52:56;95080.38;;;33.61;35.21
6343;BME280;3204;42.698;23.298;2023-08-20T12:55:22;95076.91;;;33.07;35.81
6343;BME280;3204;42.698;23.298;2023-08-20T12:57:56;95066.91;;;32.81;35.84
6343;BME280;3204;42.698;23.298;2023-08-20T13:00:25;95060.03;;;33.07;36.25
6343;BME280;3204;42.698;23.298;2023-08-20T13:02:52;95063.41;;;33.02;35.94
6343;BME280;3204;42.698;23.298;2023-08-20T13:05:18;95072.31;;;33.13;35.93
6343;BME280;3204;42.698;23.298;2023-08-20T13:07:44;95064.78;;;32.97;36.27
6343;BME280;3204;42.698;23.298;2023-08-20T13:10:10;95069.28;;;33.07;37.04
6343;BME280;3204;42.698;23.298;2023-08-20T13:12:38;95066.69;;;33.38;35.68
6343;BME280;3204;42.698;23.298;2023-08-20T13:15:06;95062.97;;;33.03;36.58
6343;BME280;3204;42.698;23.298;2023-08-20T13:17:32;95061.16;;;32.84;36.52
6343;BME280;3204;42.698;23.298;2023-08-20T13:20:03;95051.16;;;32.83;36.72
6343;BME280;3204;42.698;23.298;2023-08-20T13:22:30;95058.59;;;32.90;36.63